createdAt,value
2019-03-21T00:00:49.433Z,14.3
2019-03-21T00:01:51.098Z,14.3
2019-03-21T00:02:53.370Z,14.4
2019-03-21T00:03:54.944Z,14.3
2019-03-21T00:04:56.200Z,14.1
2019-03-21T00:05:57.464Z,14.1
2019-03-21T00:06:58.740Z,14
2019-03-21T00:07:59.996Z,14
2019-03-21T00:09:01.301Z,14
2019-03-21T00:10:02.536Z,13.8
2019-03-21T00:11:03.793Z,13.8
2019-03-21T00:12:05.042Z,13.6
2019-03-21T00:13:06.303Z,13.7
2019-03-21T00:14:07.790Z,13.7
2019-03-21T00:15:09.041Z,13.6
2019-03-21T00:16:10.293Z,13.5
2019-03-21T00:17:14.197Z,13.7
2019-03-21T00:18:18.561Z,13.7
2019-03-21T00:19:19.895Z,13.5
2019-03-21T00:20:21.188Z,13.5
2019-03-21T00:21:22.460Z,13.4
2019-03-21T00:22:23.721Z,13.5
2019-03-21T00:23:24.985Z,13.5
2019-03-21T00:24:26.281Z,13.3
2019-03-21T00:25:27.532Z,13.3
2019-03-21T00:26:30.281Z,13.2
2019-03-21T00:27:32.623Z,13.3
2019-03-21T00:28:33.897Z,13.2
2019-03-21T00:29:35.233Z,13.2
2019-03-21T00:30:37.557Z,13.3
2019-03-21T00:31:38.838Z,13.2
2019-03-21T00:32:40.121Z,13.1
2019-03-21T00:33:41.400Z,13.1
2019-03-21T00:34:42.700Z,13
2019-03-21T00:35:43.967Z,13.1
2019-03-21T00:36:45.255Z,13
2019-03-21T00:37:46.544Z,13
2019-03-21T00:38:48.967Z,13
2019-03-21T00:39:50.267Z,13.1
2019-03-21T00:40:51.516Z,12.9
2019-03-21T00:41:52.791Z,13
2019-03-21T00:42:54.045Z,13
2019-03-21T00:43:55.336Z,13
2019-03-21T00:44:57.041Z,12.9
2019-03-21T00:45:58.303Z,12.9
2019-03-21T00:46:59.578Z,12.9
2019-03-21T00:48:00.851Z,12.9
2019-03-21T00:49:02.114Z,12.9
2019-03-21T00:50:03.393Z,12.8
2019-03-21T00:51:04.643Z,12.8
2019-03-21T00:52:05.917Z,12.7
2019-03-21T00:53:07.191Z,12.7
2019-03-21T00:54:08.489Z,12.6
2019-03-21T00:55:09.770Z,12.6
2019-03-21T00:56:11.077Z,12.6
2019-03-21T00:57:12.358Z,12.4
2019-03-21T00:58:13.619Z,12.3
2019-03-21T00:59:14.897Z,12.3
2019-03-21T01:00:16.235Z,12.3
2019-03-21T01:01:17.489Z,12.4
2019-03-21T01:02:18.735Z,12.4
2019-03-21T01:03:19.997Z,12.3
2019-03-21T01:04:21.269Z,12.3
2019-03-21T01:05:22.551Z,12.4
2019-03-21T01:06:23.808Z,12.4
2019-03-21T01:07:27.266Z,12.4
2019-03-21T01:08:28.557Z,12.4
2019-03-21T01:09:29.837Z,12.1
2019-03-21T01:10:32.241Z,12.2
2019-03-21T01:11:33.504Z,12.1
2019-03-21T01:12:34.749Z,12.2
2019-03-21T01:13:36.083Z,12.2
2019-03-21T01:14:37.345Z,12.1
2019-03-21T01:15:38.677Z,12.1
2019-03-21T01:16:39.927Z,12
2019-03-21T01:17:41.213Z,12.1
2019-03-21T01:18:42.480Z,12.1
2019-03-21T01:19:43.757Z,12.2
2019-03-21T01:20:45.094Z,12.2
2019-03-21T01:21:46.360Z,12.1
2019-03-21T01:22:47.623Z,12.2
2019-03-21T01:23:48.884Z,12.1
2019-03-21T01:24:50.132Z,12.1
2019-03-21T01:25:51.444Z,12.1
2019-03-21T01:26:52.735Z,12.1
2019-03-21T01:27:54.005Z,12
2019-03-21T01:28:55.267Z,12
2019-03-21T01:29:56.523Z,11.9
2019-03-21T01:30:57.815Z,11.8
2019-03-21T01:31:59.067Z,11.8
2019-03-21T01:33:00.455Z,11.8
2019-03-21T01:34:01.704Z,11.8
2019-03-21T01:35:02.966Z,11.8
2019-03-21T01:36:04.272Z,11.9
2019-03-21T01:37:05.545Z,11.8
2019-03-21T01:38:06.813Z,11.8
2019-03-21T01:39:08.093Z,11.7
2019-03-21T01:40:09.344Z,11.9
2019-03-21T01:41:10.627Z,11.9
2019-03-21T01:42:11.895Z,11.8
2019-03-21T01:43:13.157Z,11.8
2019-03-21T01:44:14.413Z,11.8
2019-03-21T01:45:15.688Z,11.6
2019-03-21T01:46:17.225Z,11.6
2019-03-21T01:47:18.514Z,11.5
2019-03-21T01:48:19.771Z,11.6
2019-03-21T01:49:22.229Z,11.6
2019-03-21T01:50:23.487Z,11.6
2019-03-21T01:51:24.757Z,11.6
2019-03-21T01:52:26.029Z,11.8
2019-03-21T01:53:27.876Z,11.8
2019-03-21T01:54:29.164Z,11.7
2019-03-21T01:55:30.421Z,11.7
2019-03-21T01:56:31.975Z,11.6
2019-03-21T01:57:33.225Z,11.5
2019-03-21T01:58:34.477Z,11.4
2019-03-21T01:59:35.721Z,11.4
2019-03-21T02:00:36.975Z,11.3
2019-03-21T02:01:38.619Z,11.3
2019-03-21T02:02:39.875Z,11.1
2019-03-21T02:03:41.119Z,11.2
2019-03-21T02:04:42.417Z,11.3
2019-03-21T02:05:43.675Z,11.2
2019-03-21T02:06:45.077Z,11.3
2019-03-21T02:07:46.330Z,11.3
2019-03-21T02:08:47.588Z,11.2
2019-03-21T02:09:48.849Z,11.4
2019-03-21T02:10:50.110Z,11.4
2019-03-21T02:11:51.453Z,11.2
2019-03-21T02:12:52.714Z,11.3
2019-03-21T02:13:53.995Z,11.4
2019-03-21T02:14:55.295Z,11.4
2019-03-21T02:15:59.218Z,11.2
2019-03-21T02:17:00.772Z,11.1
2019-03-21T02:18:02.035Z,11.2
2019-03-21T02:19:03.316Z,11.1
2019-03-21T02:20:04.576Z,11.1
2019-03-21T02:21:05.829Z,11.1
2019-03-21T02:22:07.114Z,11.3
2019-03-21T02:23:08.373Z,11.2
2019-03-21T02:24:09.640Z,11.4
2019-03-21T02:25:10.902Z,11.2
2019-03-21T02:26:12.142Z,11.2
2019-03-21T02:27:13.433Z,11.2
2019-03-21T02:28:14.716Z,11.1
2019-03-21T02:29:16.101Z,11.1
2019-03-21T02:30:17.369Z,11.1
2019-03-21T02:31:18.627Z,11
2019-03-21T02:32:20.218Z,11.1
2019-03-21T02:33:22.656Z,11.1
2019-03-21T02:34:23.922Z,11
2019-03-21T02:35:25.192Z,11
2019-03-21T02:36:26.469Z,11
2019-03-21T02:37:27.818Z,11.1
2019-03-21T02:38:29.091Z,11.1
2019-03-21T02:39:30.391Z,11
2019-03-21T02:40:31.651Z,11
2019-03-21T02:41:33.250Z,11
2019-03-21T02:42:34.539Z,10.8
2019-03-21T02:43:35.831Z,11
2019-03-21T02:44:37.140Z,11.1
2019-03-21T02:45:38.665Z,11.2
2019-03-21T02:46:39.942Z,11.2
2019-03-21T02:47:41.282Z,11.2
2019-03-21T02:48:42.552Z,11.2
2019-03-21T02:49:43.822Z,11.2
2019-03-21T02:50:45.065Z,11
2019-03-21T02:51:46.347Z,11
2019-03-21T02:52:47.636Z,11
2019-03-21T02:53:48.886Z,11.1
2019-03-21T02:54:50.138Z,11
2019-03-21T02:55:51.405Z,11.1
2019-03-21T02:56:52.720Z,11.1
2019-03-21T02:57:54.022Z,11.1
2019-03-21T02:58:55.327Z,11.1
2019-03-21T02:59:56.570Z,11.1
2019-03-21T03:00:57.846Z,11.1
2019-03-21T03:01:59.108Z,11.2
2019-03-21T03:03:00.451Z,11.1
2019-03-21T03:04:01.698Z,11
2019-03-21T03:05:02.950Z,10.9
2019-03-21T03:06:04.207Z,10.9
2019-03-21T03:07:05.477Z,10.9
2019-03-21T03:08:06.780Z,10.8
2019-03-21T03:09:08.050Z,10.9
2019-03-21T03:10:09.326Z,10.9
2019-03-21T03:11:11.121Z,10.9
2019-03-21T03:12:12.563Z,10.8
2019-03-21T03:13:13.848Z,10.7
2019-03-21T03:14:15.136Z,10.7
2019-03-21T03:15:22.313Z,10.8
2019-03-21T03:16:24.385Z,10.8
2019-03-21T03:17:25.672Z,10.7
2019-03-21T03:18:27.389Z,10.6
2019-03-21T03:19:28.672Z,10.7
2019-03-21T03:20:29.946Z,10.7
2019-03-21T03:21:31.218Z,10.7
2019-03-21T03:22:32.458Z,10.7
2019-03-21T03:23:33.758Z,10.8
2019-03-21T03:24:35.013Z,10.8
2019-03-21T03:25:36.289Z,10.9
2019-03-21T03:26:37.550Z,10.9
2019-03-21T03:27:38.808Z,10.8
2019-03-21T03:28:40.116Z,10.8
2019-03-21T03:29:41.368Z,10.8
2019-03-21T03:30:42.624Z,10.8
2019-03-21T03:31:43.895Z,10.7
2019-03-21T03:32:45.174Z,10.6
2019-03-21T03:33:46.518Z,10.5
2019-03-21T03:34:47.770Z,10.6
2019-03-21T03:35:49.046Z,10.6
2019-03-21T03:36:50.292Z,10.6
2019-03-21T03:37:51.542Z,10.6
2019-03-21T03:38:53.746Z,10.4
2019-03-21T03:39:55.298Z,10.4
2019-03-21T03:40:56.554Z,10.4
2019-03-21T03:41:57.856Z,10.5
2019-03-21T03:42:59.501Z,10.6
2019-03-21T03:44:00.808Z,10.6
2019-03-21T03:45:02.147Z,10.7
2019-03-21T03:46:03.554Z,10.7
2019-03-21T03:47:05.064Z,10.7
2019-03-21T03:48:06.316Z,10.7
2019-03-21T03:49:09.050Z,10.6
2019-03-21T03:50:10.320Z,10.5
2019-03-21T03:51:11.577Z,10.5
2019-03-21T03:52:12.828Z,10.5
2019-03-21T03:53:14.386Z,10.4
2019-03-21T03:54:15.662Z,10.4
2019-03-21T03:55:16.946Z,10.5
2019-03-21T03:56:18.196Z,10.5
2019-03-21T03:57:19.481Z,10.6
2019-03-21T03:58:20.747Z,10.6
2019-03-21T03:59:22.374Z,10.6
2019-03-21T04:00:23.618Z,10.5
2019-03-21T04:01:24.880Z,10.4
2019-03-21T04:02:26.174Z,10.3
2019-03-21T04:03:27.434Z,10.4
2019-03-21T04:04:28.754Z,10.6
2019-03-21T04:05:30.027Z,10.6
2019-03-21T04:06:31.286Z,10.4
2019-03-21T04:07:32.570Z,10.3
2019-03-21T04:08:33.844Z,10.2
2019-03-21T04:09:35.216Z,10.3
2019-03-21T04:10:36.466Z,10.4
2019-03-21T04:11:37.710Z,10.2
2019-03-21T04:12:39.022Z,10.2
2019-03-21T04:13:40.295Z,10.4
2019-03-21T04:14:41.622Z,10.3
2019-03-21T04:15:52.160Z,10.1
2019-03-21T04:16:54.952Z,10.2
2019-03-21T04:17:56.202Z,10.3
2019-03-21T04:18:57.458Z,10.1
2019-03-21T04:19:59.251Z,10.3
2019-03-21T04:21:00.590Z,10.4
2019-03-21T04:22:01.983Z,10.3
2019-03-21T04:23:03.240Z,10.3
2019-03-21T04:24:04.544Z,10.3
2019-03-21T04:25:05.845Z,10.2
2019-03-21T04:26:07.102Z,10.2
2019-03-21T04:27:08.392Z,10
2019-03-21T04:28:09.649Z,10.2
2019-03-21T04:29:10.913Z,10.2
2019-03-21T04:30:12.222Z,10.1
2019-03-21T04:31:13.481Z,10.2
2019-03-21T04:32:14.794Z,10.3
2019-03-21T04:33:16.080Z,10.3
2019-03-21T04:34:17.355Z,10.2
2019-03-21T04:35:18.687Z,10.2
2019-03-21T04:36:19.953Z,10.2
2019-03-21T04:37:21.236Z,10.3
2019-03-21T04:38:22.486Z,10.3
2019-03-21T04:39:23.742Z,10.2
2019-03-21T04:40:25.050Z,10.1
2019-03-21T04:41:26.302Z,10.2
2019-03-21T04:42:27.552Z,10.2
2019-03-21T04:43:28.815Z,10.2
2019-03-21T04:44:30.049Z,10
2019-03-21T04:45:31.339Z,10
2019-03-21T04:46:32.603Z,10
2019-03-21T04:47:33.862Z,9.9
2019-03-21T04:48:37.612Z,10.1
2019-03-21T04:49:41.325Z,9.9
2019-03-21T04:50:42.947Z,10.1
2019-03-21T04:51:44.199Z,10.2
2019-03-21T04:52:45.467Z,10.2
2019-03-21T04:53:46.741Z,10.1
2019-03-21T04:54:47.999Z,10.1
2019-03-21T04:55:49.305Z,10.1
2019-03-21T04:56:50.559Z,10
2019-03-21T04:57:51.831Z,10
2019-03-21T04:58:53.085Z,10
2019-03-21T04:59:54.362Z,9.8
2019-03-21T05:00:55.657Z,10
2019-03-21T05:01:56.920Z,10
2019-03-21T05:02:58.591Z,10
2019-03-21T05:03:59.849Z,10
2019-03-21T05:05:01.101Z,9.9
2019-03-21T05:06:02.455Z,10
2019-03-21T05:07:03.705Z,9.9
2019-03-21T05:08:04.969Z,9.8
2019-03-21T05:09:06.249Z,10
2019-03-21T05:10:07.606Z,10.2
2019-03-21T05:11:09.126Z,10.1
2019-03-21T05:12:10.513Z,10
2019-03-21T05:13:11.925Z,9.9
2019-03-21T05:14:15.731Z,10
2019-03-21T05:15:17.223Z,10.1
2019-03-21T05:16:18.626Z,10
2019-03-21T05:17:20.035Z,10.1
2019-03-21T05:18:21.405Z,10
2019-03-21T05:19:22.727Z,10
2019-03-21T05:20:23.984Z,10
2019-03-21T05:21:25.260Z,10
2019-03-21T05:22:26.523Z,10.1
2019-03-21T05:23:27.797Z,10.1
2019-03-21T05:24:30.091Z,10.1
2019-03-21T05:25:31.337Z,10.1
2019-03-21T05:26:32.621Z,10.2
2019-03-21T05:27:33.869Z,10.1
2019-03-21T05:28:35.119Z,10
2019-03-21T05:29:36.359Z,10
2019-03-21T05:30:37.602Z,9.9
2019-03-21T05:31:39.078Z,9.9
2019-03-21T05:32:40.364Z,10.1
2019-03-21T05:33:41.775Z,10.1
2019-03-21T05:34:43.629Z,10.1
2019-03-21T05:35:44.891Z,10.2
2019-03-21T05:36:46.359Z,10.1
2019-03-21T05:37:47.749Z,10.1
2019-03-21T05:38:49.003Z,10.2
2019-03-21T05:39:50.244Z,10.1
2019-03-21T05:40:51.493Z,10
2019-03-21T05:41:52.767Z,9.9
2019-03-21T05:42:54.017Z,9.8
2019-03-21T05:43:55.297Z,10.1
2019-03-21T05:44:57.615Z,10.2
2019-03-21T05:46:01.192Z,10.2
2019-03-21T05:47:02.476Z,10.2
2019-03-21T05:48:03.761Z,10.3
2019-03-21T05:49:05.021Z,10.3
2019-03-21T05:50:06.281Z,10.5
2019-03-21T05:51:07.547Z,10.6
2019-03-21T05:52:09.431Z,10.5
2019-03-21T05:53:10.768Z,10.6
2019-03-21T05:54:12.176Z,10.6
2019-03-21T05:55:13.824Z,10.8
2019-03-21T05:56:18.479Z,10.9
2019-03-21T05:57:19.831Z,10.9
2019-03-21T05:58:21.129Z,10.9
2019-03-21T05:59:22.446Z,11
2019-03-21T06:00:23.705Z,11.1
2019-03-21T06:01:24.949Z,11.1
2019-03-21T06:02:26.240Z,11.3
2019-03-21T06:03:27.871Z,11.4
2019-03-21T06:04:29.131Z,11.4
2019-03-21T06:05:30.394Z,11.4
2019-03-21T06:06:31.627Z,11.4
2019-03-21T06:07:32.945Z,11.4
2019-03-21T06:08:34.193Z,11.5
2019-03-21T06:09:35.457Z,11.6
2019-03-21T06:10:36.722Z,11.8
2019-03-21T06:11:39.617Z,11.9
2019-03-21T06:12:41.055Z,12.2
2019-03-21T06:13:42.357Z,12.1
2019-03-21T06:14:43.645Z,12.2
2019-03-21T06:15:44.909Z,12.3
2019-03-21T06:16:48.585Z,12.2
2019-03-21T06:17:49.898Z,12.2
2019-03-21T06:18:51.170Z,12.4
2019-03-21T06:19:52.474Z,12.5
2019-03-21T06:20:53.743Z,12.5
2019-03-21T06:21:55.005Z,12.6
2019-03-21T06:22:56.681Z,12.6
2019-03-21T06:23:57.962Z,12.8
2019-03-21T06:24:59.220Z,12.9
2019-03-21T06:26:00.472Z,13
2019-03-21T06:27:01.741Z,13
2019-03-21T06:28:14.646Z,13
2019-03-21T06:29:15.905Z,12.9
2019-03-21T06:30:17.466Z,12.9
2019-03-21T06:31:18.740Z,13
2019-03-21T06:32:20.013Z,13.1
2019-03-21T06:33:21.467Z,13.1
2019-03-21T06:34:22.720Z,13.2
2019-03-21T06:35:24.302Z,13
2019-03-21T06:36:25.742Z,13
2019-03-21T06:37:28.578Z,13.1
2019-03-21T06:38:30.684Z,13.2
2019-03-21T06:39:34.736Z,13.3
2019-03-21T06:40:36.022Z,13.3
2019-03-21T06:41:37.280Z,13.3
2019-03-21T06:42:39.084Z,13.4
2019-03-21T06:43:40.745Z,13.4
2019-03-21T06:44:41.997Z,13.6
2019-03-21T06:45:47.727Z,13.6
2019-03-21T06:46:49.902Z,13.6
2019-03-21T06:47:53.075Z,13.6
2019-03-21T06:48:54.628Z,13.8
2019-03-21T06:49:55.890Z,14
2019-03-21T06:50:57.188Z,14.1
2019-03-21T06:51:58.464Z,14.1
2019-03-21T06:53:00.014Z,14.2
2019-03-21T06:54:04.000Z,14.3
2019-03-21T06:55:05.267Z,14.4
2019-03-21T06:56:06.708Z,14.4
2019-03-21T06:57:08.114Z,14.5
2019-03-21T06:58:09.377Z,14.6
2019-03-21T06:59:10.667Z,14.6
2019-03-21T07:00:11.944Z,14.6
2019-03-21T07:01:13.232Z,14.6
2019-03-21T07:02:14.488Z,14.7
2019-03-21T07:03:16.465Z,14.8
2019-03-21T07:04:18.132Z,14.9
2019-03-21T07:05:20.627Z,15
2019-03-21T07:06:21.976Z,15
2019-03-21T07:07:23.238Z,15.1
2019-03-21T07:08:24.532Z,15.2
2019-03-21T07:09:25.886Z,15.3
2019-03-21T07:10:29.749Z,15.6
2019-03-21T07:11:31.042Z,15.7
2019-03-21T07:12:32.292Z,15.8
2019-03-21T07:13:33.559Z,16
2019-03-21T07:14:34.862Z,16.1
2019-03-21T07:15:36.142Z,16.2
2019-03-21T07:16:37.414Z,16.2
2019-03-21T07:17:38.724Z,16.3
2019-03-21T07:18:41.107Z,16.4
2019-03-21T07:19:42.386Z,16.4
2019-03-21T07:20:43.658Z,16.5
2019-03-21T07:21:44.916Z,16.6
2019-03-21T07:22:46.182Z,16.6
2019-03-21T07:23:54.861Z,16.7
2019-03-21T07:24:57.611Z,16.8
2019-03-21T07:26:03.341Z,16.9
2019-03-21T07:27:07.324Z,17
2019-03-21T07:28:08.600Z,17.1
2019-03-21T07:29:12.258Z,17.1
2019-03-21T07:30:14.648Z,17.2
2019-03-21T07:31:15.958Z,17.4
2019-03-21T07:32:19.682Z,17.5
2019-03-21T07:33:21.248Z,17.5
2019-03-21T07:34:22.503Z,17.6
2019-03-21T07:35:23.792Z,17.6
2019-03-21T07:36:26.316Z,17.7
2019-03-21T07:37:27.696Z,17.8
2019-03-21T07:38:28.944Z,17.8
2019-03-21T07:39:30.223Z,17.9
2019-03-21T07:40:31.544Z,17.9
2019-03-21T07:41:32.798Z,18
2019-03-21T07:42:34.391Z,18.1
2019-03-21T07:43:35.662Z,18.2
2019-03-21T07:44:36.960Z,18.3
2019-03-21T07:45:38.247Z,18.3
2019-03-21T07:46:39.916Z,18.4
2019-03-21T07:47:41.204Z,18.5
2019-03-21T07:48:42.458Z,18.5
2019-03-21T07:49:43.734Z,18.6
2019-03-21T07:50:45.046Z,18.7
2019-03-21T07:51:46.333Z,18.7
2019-03-21T07:52:47.600Z,18.8
2019-03-21T07:53:48.868Z,18.9
2019-03-21T07:54:50.434Z,18.9
2019-03-21T07:55:52.000Z,19
2019-03-21T07:56:53.272Z,19
2019-03-21T07:57:54.662Z,19.1
2019-03-21T07:58:57.755Z,19.1
2019-03-21T08:00:01.296Z,19.2
2019-03-21T08:01:02.588Z,19.3
2019-03-21T08:02:03.868Z,19.4
2019-03-21T08:03:05.181Z,19.4
2019-03-21T08:04:07.452Z,19.5
2019-03-21T08:05:08.736Z,19.5
2019-03-21T08:06:10.016Z,19.6
2019-03-21T08:07:11.278Z,19.6
2019-03-21T08:08:12.552Z,19.7
2019-03-21T08:09:13.798Z,19.7
2019-03-21T08:10:15.088Z,19.8
2019-03-21T08:11:16.371Z,19.8
2019-03-21T08:12:17.644Z,19.9
2019-03-21T08:13:18.894Z,19.9
2019-03-21T08:14:20.148Z,20
2019-03-21T08:15:21.417Z,20
2019-03-21T08:16:22.712Z,20.1
2019-03-21T08:17:24.802Z,20.1
2019-03-21T08:18:26.061Z,20.2
2019-03-21T08:19:27.308Z,20.3
2019-03-21T08:20:29.640Z,20.3
2019-03-21T08:21:30.928Z,20.3
2019-03-21T08:22:32.196Z,20.4
2019-03-21T08:23:33.463Z,20.4
2019-03-21T08:24:34.711Z,20.5
2019-03-21T08:25:39.836Z,20.6
2019-03-21T08:26:41.279Z,20.6
2019-03-21T08:27:42.551Z,20.7
2019-03-21T08:28:43.849Z,20.7
2019-03-21T08:29:45.387Z,20.7
2019-03-21T08:30:46.668Z,20.8
2019-03-21T08:31:47.950Z,20.9
2019-03-21T08:32:49.224Z,20.9
2019-03-21T08:33:50.493Z,21
2019-03-21T08:34:51.759Z,21
2019-03-21T08:35:54.364Z,21.1
2019-03-21T08:36:55.689Z,21.1
2019-03-21T08:37:58.306Z,21.2
2019-03-21T08:39:02.955Z,21.2
2019-03-21T08:40:04.896Z,21.3
2019-03-21T08:41:06.174Z,21.3
2019-03-21T08:42:07.489Z,21.4
2019-03-21T08:43:08.890Z,21.4
2019-03-21T08:44:10.167Z,21.4
2019-03-21T08:45:11.428Z,21.5
2019-03-21T08:46:13.002Z,21.5
2019-03-21T08:47:14.330Z,21.6
2019-03-21T08:48:18.624Z,21.6
2019-03-21T08:49:19.922Z,21.7
2019-03-21T08:50:21.183Z,21.7
2019-03-21T08:51:22.473Z,21.8
2019-03-21T08:52:23.924Z,21.8
2019-03-21T08:53:28.067Z,21.8
2019-03-21T08:54:29.329Z,21.8
2019-03-21T08:55:30.580Z,21.8
2019-03-21T08:56:31.885Z,21.9
2019-03-21T08:57:33.483Z,21.9
2019-03-21T08:58:34.771Z,22
2019-03-21T08:59:38.379Z,22
2019-03-21T09:00:39.631Z,22
2019-03-21T09:01:40.899Z,22
2019-03-21T09:02:42.207Z,22
2019-03-21T09:03:43.469Z,22
2019-03-21T09:04:44.726Z,22.1
2019-03-21T09:05:46.007Z,22.1
2019-03-21T09:06:47.283Z,22.1
2019-03-21T09:07:52.399Z,22.1
2019-03-21T09:08:53.701Z,22.1
2019-03-21T09:09:54.977Z,22.2
2019-03-21T09:10:56.273Z,22.2
2019-03-21T09:11:57.536Z,22.2
2019-03-21T09:12:58.873Z,22.3
2019-03-21T09:14:00.552Z,22.3
2019-03-21T09:15:01.843Z,22.3
2019-03-21T09:16:03.117Z,22.3
2019-03-21T09:17:04.395Z,22.4
2019-03-21T09:18:05.677Z,22.4
2019-03-21T09:19:07.305Z,22.4
2019-03-21T09:20:09.643Z,22.4
2019-03-21T09:21:19.412Z,22.4
2019-03-21T09:22:22.573Z,22.3
2019-03-21T09:23:23.889Z,22.3
2019-03-21T09:24:25.175Z,22.3
2019-03-21T09:25:26.449Z,22.2
2019-03-21T09:26:27.709Z,22.2
2019-03-21T09:27:28.981Z,22.2
2019-03-21T09:28:30.650Z,22.2
2019-03-21T09:29:31.907Z,22.1
2019-03-21T09:30:33.321Z,22.1
2019-03-21T09:31:34.595Z,22.1
2019-03-21T09:32:35.882Z,22.2
2019-03-21T09:33:37.201Z,22.2
2019-03-21T09:34:38.472Z,22.2
2019-03-21T09:35:39.744Z,22.2
2019-03-21T09:36:40.993Z,22.2
2019-03-21T09:37:42.279Z,22.2
2019-03-21T09:38:43.603Z,22.3
2019-03-21T09:39:44.864Z,22.3
2019-03-21T09:40:46.123Z,22.4
2019-03-21T09:41:47.390Z,22.5
2019-03-21T09:42:49.001Z,22.5
2019-03-21T09:43:50.324Z,22.5
2019-03-21T09:44:52.713Z,22.5
2019-03-21T09:45:56.565Z,22.5
2019-03-21T09:46:58.296Z,22.4
2019-03-21T09:47:59.591Z,22.4
2019-03-21T09:49:02.802Z,22.5
2019-03-21T09:50:05.091Z,22.5
2019-03-21T09:51:07.267Z,22.5
2019-03-21T09:52:08.539Z,22.5
2019-03-21T09:53:09.847Z,22.5
2019-03-21T09:54:11.131Z,22.5
2019-03-21T09:55:12.411Z,22.5
2019-03-21T09:56:13.683Z,22.5
2019-03-21T09:57:15.071Z,22.5
2019-03-21T09:58:16.326Z,22.6
2019-03-21T09:59:17.635Z,22.6
2019-03-21T10:00:18.911Z,22.6
2019-03-21T10:01:20.193Z,22.6
2019-03-21T10:02:21.447Z,22.6
2019-03-21T10:03:22.708Z,22.6
2019-03-21T10:04:23.995Z,22.6
2019-03-21T10:05:25.548Z,22.6
2019-03-21T10:06:26.822Z,22.6
2019-03-21T10:07:28.073Z,22.6
2019-03-21T10:08:32.755Z,22.6
2019-03-21T10:09:34.065Z,22.6
2019-03-21T10:10:35.298Z,22.6
2019-03-21T10:11:36.736Z,22.6
2019-03-21T10:12:37.985Z,22.6
2019-03-21T10:13:40.254Z,22.6
2019-03-21T10:14:42.852Z,22.6
2019-03-21T10:15:44.600Z,22.7
2019-03-21T10:16:45.848Z,22.8
2019-03-21T10:17:47.113Z,22.8
2019-03-21T10:18:48.355Z,22.8
2019-03-21T10:19:49.658Z,22.8
2019-03-21T10:20:50.937Z,22.8
2019-03-21T10:21:52.246Z,22.8
2019-03-21T10:22:53.509Z,22.8
2019-03-21T10:23:54.772Z,22.9
2019-03-21T10:24:56.062Z,22.9
2019-03-21T10:25:57.340Z,22.9
2019-03-21T10:26:58.588Z,22.9
2019-03-21T10:27:59.868Z,22.8
2019-03-21T10:29:01.143Z,22.8
2019-03-21T10:30:02.750Z,22.8
2019-03-21T10:31:04.008Z,22.9
2019-03-21T10:32:14.073Z,22.9
2019-03-21T10:33:15.719Z,22.9
2019-03-21T10:34:17.269Z,22.8
2019-03-21T10:35:18.845Z,22.8
2019-03-21T10:36:20.101Z,22.8
2019-03-21T10:37:21.386Z,22.8
2019-03-21T10:38:22.679Z,22.8
2019-03-21T10:39:23.976Z,22.8
2019-03-21T10:40:25.292Z,22.9
2019-03-21T10:41:26.546Z,22.9
2019-03-21T10:42:28.263Z,22.9
2019-03-21T10:43:30.598Z,22.9
2019-03-21T10:44:31.860Z,22.9
2019-03-21T10:45:33.299Z,22.9
2019-03-21T10:46:35.797Z,22.9
2019-03-21T10:47:37.071Z,22.9
2019-03-21T10:48:38.353Z,23
2019-03-21T10:49:39.620Z,22.9
2019-03-21T10:50:40.940Z,22.9
2019-03-21T10:51:50.506Z,22.9
2019-03-21T10:52:56.236Z,22.9
2019-03-21T10:53:58.728Z,22.9
2019-03-21T10:55:03.548Z,23
2019-03-21T10:56:04.853Z,23
2019-03-21T10:57:06.444Z,23
2019-03-21T10:58:07.708Z,22.9
2019-03-21T10:59:09.290Z,22.9
2019-03-21T11:00:10.565Z,23
2019-03-21T11:01:11.987Z,22.9
2019-03-21T11:02:13.244Z,22.9
2019-03-21T11:03:14.503Z,23
2019-03-21T11:04:15.773Z,23
2019-03-21T11:05:17.040Z,22.9
2019-03-21T11:06:18.360Z,23
2019-03-21T11:07:19.622Z,23
2019-03-21T11:08:25.027Z,22.9
2019-03-21T11:09:26.340Z,22.9
2019-03-21T11:10:27.633Z,22.9
2019-03-21T11:11:28.956Z,23
2019-03-21T11:12:30.449Z,23
2019-03-21T11:13:31.741Z,22.9
2019-03-21T11:14:40.253Z,22.9
2019-03-21T11:15:41.509Z,22.9
2019-03-21T11:16:43.972Z,22.9
2019-03-21T11:17:45.254Z,22.9
2019-03-21T11:18:46.531Z,22.9
2019-03-21T11:19:47.802Z,22.9
2019-03-21T11:20:49.060Z,22.9
2019-03-21T11:21:50.453Z,22.9
2019-03-21T11:22:51.714Z,22.9
2019-03-21T11:23:59.491Z,23
2019-03-21T11:25:00.834Z,23
2019-03-21T11:26:02.354Z,23
2019-03-21T11:27:05.319Z,22.9
2019-03-21T11:28:07.595Z,23
2019-03-21T11:29:08.992Z,23
2019-03-21T11:30:15.811Z,23
2019-03-21T11:31:17.504Z,22.9
2019-03-21T11:32:18.842Z,22.9
2019-03-21T11:33:20.421Z,23
2019-03-21T11:34:21.687Z,22.9
2019-03-21T11:35:22.972Z,22.9
2019-03-21T11:36:24.245Z,22.9
2019-03-21T11:37:25.638Z,22.9
2019-03-21T11:38:37.035Z,22.9
2019-03-21T11:39:38.290Z,22.9
2019-03-21T11:40:42.619Z,22.9
2019-03-21T11:41:44.360Z,22.9
2019-03-21T11:42:48.218Z,22.9
2019-03-21T11:43:57.317Z,22.9
2019-03-21T11:45:01.382Z,22.9
2019-03-21T11:46:03.863Z,22.9
2019-03-21T11:47:05.168Z,22.9
2019-03-21T11:48:06.784Z,22.9
2019-03-21T11:49:11.039Z,22.9
2019-03-21T11:50:12.313Z,22.9
2019-03-21T11:51:13.753Z,22.9
2019-03-21T11:52:18.316Z,22.9
2019-03-21T11:53:20.405Z,22.9
2019-03-21T11:54:21.703Z,22.9
2019-03-21T11:55:23.067Z,22.9
2019-03-21T11:56:25.304Z,22.9
2019-03-21T11:57:26.556Z,22.9
2019-03-21T11:58:27.871Z,22.9
2019-03-21T11:59:41.569Z,22.9
2019-03-21T12:00:53.072Z,22.9
2019-03-21T12:01:56.789Z,22.8
2019-03-21T12:02:58.066Z,22.9
2019-03-21T12:03:59.382Z,22.9
2019-03-21T12:05:00.651Z,22.9
2019-03-21T12:06:01.928Z,22.9
2019-03-21T12:07:05.559Z,22.9
2019-03-21T12:08:07.126Z,22.9
2019-03-21T12:09:08.436Z,22.9
2019-03-21T12:10:10.023Z,22.9
2019-03-21T12:11:11.634Z,22.9
2019-03-21T12:12:14.200Z,22.9
2019-03-21T12:13:16.950Z,22.9
2019-03-21T12:14:18.300Z,22.8
2019-03-21T12:15:19.574Z,22.9
2019-03-21T12:16:23.203Z,22.8
2019-03-21T12:17:24.556Z,22.8
2019-03-21T12:18:33.097Z,22.8
2019-03-21T12:19:35.433Z,22.8
2019-03-21T12:20:36.748Z,22.8
2019-03-21T12:21:38.003Z,22.8
2019-03-21T12:22:39.292Z,22.8
2019-03-21T12:23:40.571Z,22.8
2019-03-21T12:24:43.228Z,22.7
2019-03-21T12:25:44.784Z,22.7
2019-03-21T12:26:46.042Z,22.7
2019-03-21T12:27:47.302Z,22.7
2019-03-21T12:28:48.565Z,22.7
2019-03-21T12:29:51.125Z,22.7
2019-03-21T12:30:52.427Z,22.7
2019-03-21T12:31:55.782Z,22.7
2019-03-21T12:32:58.246Z,22.7
2019-03-21T12:33:59.622Z,22.7
2019-03-21T12:35:01.769Z,22.7
2019-03-21T12:36:03.681Z,22.7
2019-03-21T12:37:05.309Z,22.7
2019-03-21T12:38:06.601Z,22.7
2019-03-21T12:39:08.948Z,22.7
2019-03-21T12:40:11.292Z,22.7
2019-03-21T12:41:13.822Z,22.6
2019-03-21T12:42:15.110Z,22.6
2019-03-21T12:43:18.444Z,22.6
2019-03-21T12:44:19.712Z,22.6
2019-03-21T12:45:21.073Z,22.6
2019-03-21T12:46:22.362Z,22.6
2019-03-21T12:47:30.983Z,22.5
2019-03-21T12:48:32.869Z,22.5
2019-03-21T12:49:34.145Z,22.6
2019-03-21T12:50:35.487Z,22.5
2019-03-21T12:51:37.499Z,22.6
2019-03-21T12:52:41.494Z,22.6
2019-03-21T12:53:44.097Z,22.5
2019-03-21T12:54:46.663Z,22.5
2019-03-21T12:55:48.365Z,22.5
2019-03-21T12:56:52.799Z,22.5
2019-03-21T12:57:59.327Z,22.5
2019-03-21T12:59:00.829Z,22.5
2019-03-21T13:00:02.092Z,22.5
2019-03-21T13:01:03.408Z,22.5
2019-03-21T13:02:04.681Z,22.5
2019-03-21T13:03:05.933Z,22.5
2019-03-21T13:04:07.224Z,22.5
2019-03-21T13:05:08.638Z,22.4
2019-03-21T13:06:11.047Z,22.3
2019-03-21T13:07:12.328Z,22.4
2019-03-21T13:08:13.571Z,22.3
2019-03-21T13:09:16.653Z,22.3
2019-03-21T13:10:18.043Z,22.4
2019-03-21T13:11:19.377Z,22.4
2019-03-21T13:12:20.733Z,22.3
2019-03-21T13:13:21.989Z,22.5
2019-03-21T13:14:23.288Z,22.4
2019-03-21T13:15:29.646Z,22.4
2019-03-21T13:16:31.397Z,22.4
2019-03-21T13:17:34.700Z,22.4
2019-03-21T13:18:36.293Z,22.4
2019-03-21T13:19:38.792Z,22.4
2019-03-21T13:20:40.359Z,22.4
2019-03-21T13:21:41.757Z,22.4
2019-03-21T13:22:52.747Z,22.3
2019-03-21T13:23:55.996Z,22.3
2019-03-21T13:25:00.370Z,22.2
2019-03-21T13:26:01.717Z,22.2
2019-03-21T13:27:03.424Z,22.2
2019-03-21T13:28:05.469Z,22.2
2019-03-21T13:29:06.761Z,22.2
2019-03-21T13:30:08.025Z,22.2
2019-03-21T13:31:11.963Z,22.2
2019-03-21T13:32:13.485Z,22.2
2019-03-21T13:33:19.645Z,22.2
2019-03-21T13:34:20.917Z,22.2
2019-03-21T13:35:31.903Z,22.2
2019-03-21T13:36:34.039Z,22.2
2019-03-21T13:37:36.161Z,22.2
2019-03-21T13:38:38.541Z,22.2
2019-03-21T13:39:42.997Z,22.2
2019-03-21T13:40:44.273Z,22.2
2019-03-21T13:41:45.581Z,22.2
2019-03-21T13:42:46.873Z,22.2
2019-03-21T13:43:48.146Z,22.2
2019-03-21T13:44:49.504Z,22.2
2019-03-21T13:45:53.317Z,22.2
2019-03-21T13:46:54.637Z,22.1
2019-03-21T13:47:58.490Z,22.1
2019-03-21T13:49:00.341Z,22.1